Time;durP1;ratioP1;P1;durP2;ratioP2;P2;SDS_P1;SDS_P2;PMS_P1;PMS_P2;Temp;Humidity;BMP_temperature;BMP_pressure;BME280_temperature;BME280_humidity;BME280_pressure;Samples;Min_cycle;Max_cycle;Signal;HPM_P1;HPM_P2
2022/05/04 00:00:48;;;;;;;7.25;1.05;;;10.00;96.50;;;;;;4931729;28;20031;-81
2022/05/04 00:03:15;;;;;;;5.78;1.60;;;10.00;96.50;;;;;;4932082;28;20040;-82
2022/05/04 00:05:42;;;;;;;5.88;0.85;;;9.90;96.50;;;;;;4952603;28;20039;-82
2022/05/04 00:08:08;;;;;;;7.15;1.20;;;10.00;96.50;;;;;;4934254;28;20028;-82
2022/05/04 00:10:36;;;;;;;5.80;1.25;;;9.90;96.50;;;;;;4892992;28;20054;-83
2022/05/04 00:13:03;;;;;;;6.60;1.30;;;9.90;96.40;;;;;;4933497;28;20031;-82
2022/05/04 00:15:32;;;;;;;6.20;1.15;;;9.90;96.50;;;;;;4938060;28;20039;-82
2022/05/04 00:17:58;;;;;;;7.03;1.20;;;9.90;96.50;;;;;;4948668;28;20404;-82
2022/05/04 00:20:31;;;;;;;7.15;1.08;;;10.00;96.40;;;;;;4959686;28;20070;-83
2022/05/04 00:23:12;;;;;;;5.78;1.00;;;10.00;96.40;;;;;;4953936;28;20413;-83
2022/05/04 00:25:39;;;;;;;7.00;1.05;;;9.90;96.40;;;;;;4938048;28;20407;-82
2022/05/04 00:28:11;;;;;;;5.72;1.23;;;9.90;96.40;;;;;;4947454;28;20405;-83
2022/05/04 00:30:38;;;;;;;7.28;1.55;;;9.90;96.50;;;;;;4930563;29;20046;-82
2022/05/04 00:33:12;;;;;;;5.28;1.38;;;9.90;96.50;;;;;;4942726;28;20038;-82
2022/05/04 00:35:39;;;;;;;8.43;1.30;;;9.80;96.40;;;;;;4947554;28;20039;-82
2022/05/04 00:38:06;;;;;;;9.52;1.00;;;9.80;96.40;;;;;;4952534;28;20962;-82
2022/05/04 00:40:38;;;;;;;6.05;1.27;;;9.80;96.40;;;;;;4946715;28;20414;-82
2022/05/04 00:43:26;;;;;;;5.10;1.30;;;9.80;96.40;;;;;;4949422;28;20058;-82
2022/05/04 00:45:52;;;;;;;4.00;1.17;;;9.80;96.40;;;;;;4926152;28;20510;-82
2022/05/04 00:48:22;;;;;;;6.68;1.40;;;9.80;96.40;;;;;;4949989;28;20044;-82
2022/05/04 00:50:55;;;;;;;5.22;1.20;;;9.80;96.50;;;;;;4918585;28;20039;-82
2022/05/04 00:53:56;;;;;;;4.38;1.20;;;9.80;96.50;;;;;;4949928;28;20115;-82
2022/05/04 00:56:23;;;;;;;5.50;0.90;;;9.80;96.60;;;;;;4914558;29;20039;-82
2022/05/04 00:58:55;;;;;;;8.15;1.42;;;9.80;96.50;;;;;;4968721;28;20050;-82
2022/05/04 01:01:26;;;;;;;8.85;1.05;;;9.80;96.50;;;;;;4961615;28;20046;-82
2022/05/04 01:04:01;;;;;;;5.32;1.40;;;9.80;96.50;;;;;;4921136;28;20051;-82
2022/05/04 01:06:28;;;;;;;8.55;1.00;;;9.70;96.60;;;;;;4954497;28;20039;-82
2022/05/04 01:08:55;;;;;;;7.15;1.25;;;9.80;96.60;;;;;;4915898;28;20038;-82
2022/05/04 01:11:23;;;;;;;4.60;1.02;;;9.70;96.60;;;;;;4901359;29;21492;-82
2022/05/04 01:14:02;;;;;;;4.90;0.98;;;9.70;96.60;;;;;;4944949;28;20039;-81
2022/05/04 01:16:35;;;;;;;6.15;1.42;;;9.80;96.60;;;;;;4951885;28;20062;-82
2022/05/04 01:19:09;;;;;;;5.60;1.17;;;9.70;96.60;;;;;;4936767;28;20043;-82
2022/05/04 01:21:37;;;;;;;6.10;0.98;;;9.70;96.50;;;;;;4938903;28;20050;-81
2022/05/04 01:24:07;;;;;;;7.05;1.20;;;9.70;96.50;;;;;;4929354;28;20039;-82
2022/05/04 01:27:04;;;;;;;10.38;1.20;;;9.70;96.60;;;;;;4905958;28;20063;-82
2022/05/04 01:29:34;;;;;;;4.97;1.27;;;9.60;96.50;;;;;;4931537;28;20038;-81
2022/05/04 01:32:20;;;;;;;5.82;1.00;;;9.60;96.60;;;;;;4929483;28;20491;-82
2022/05/04 01:34:46;;;;;;;7.70;1.77;;;9.60;96.60;;;;;;4947893;28;21531;-82
2022/05/04 01:37:15;;;;;;;7.63;1.65;;;9.60;96.60;;;;;;4944194;28;20046;-82
2022/05/04 01:39:41;;;;;;;6.95;1.10;;;9.60;96.60;;;;;;4946899;28;20027;-82
2022/05/04 01:42:16;;;;;;;5.88;0.98;;;9.50;96.60;;;;;;4952333;28;20048;-82
2022/05/04 01:44:52;;;;;;;6.47;1.20;;;9.50;96.60;;;;;;4947353;28;20451;-83
2022/05/04 01:47:19;;;;;;;5.63;0.90;;;9.50;96.60;;;;;;4927272;28;20042;-81
2022/05/04 01:49:59;;;;;;;8.07;1.20;;;9.50;96.60;;;;;;4940813;28;20055;-82
2022/05/04 01:52:34;;;;;;;8.98;1.10;;;9.50;96.60;;;;;;4935117;28;20039;-82
2022/05/04 01:55:11;;;;;;;;;;;;;;;;;;;;;
2022/05/04 01:57:45;;;;;;;8.70;1.33;;;9.50;96.60;;;;;;4930593;28;20051;-83
2022/05/04 02:00:13;;;;;;;6.68;1.00;;;9.50;96.60;;;;;;4939171;28;20070;-82
2022/05/04 02:02:44;;;;;;;6.53;1.48;;;9.40;96.70;;;;;;4967212;28;20039;-82
2022/05/04 02:05:14;;;;;;;6.82;1.00;;;9.40;96.70;;;;;;4955482;28;20037;-83
2022/05/04 02:07:51;;;;;;;6.10;0.90;;;9.40;96.70;;;;;;4933853;28;21017;-83
2022/05/04 02:10:20;;;;;;;9.77;1.30;;;9.40;96.70;;;;;;4933855;28;20061;-83
2022/05/04 02:12:49;;;;;;;4.85;0.93;;;9.40;96.70;;;;;;4934445;28;20039;-82
2022/05/04 02:15:18;;;;;;;8.98;1.23;;;9.40;96.70;;;;;;4937389;28;20042;-83
2022/05/04 02:17:45;;;;;;;7.18;0.85;;;9.40;97.00;;;;;;4921366;28;20054;-83
2022/05/04 02:20:12;;;;;;;8.55;1.55;;;9.40;96.70;;;;;;4948992;28;20047;-82
2022/05/04 02:22:38;;;;;;;10.23;1.23;;;9.30;96.70;;;;;;4940909;28;20039;-82
2022/05/04 02:25:12;;;;;;;8.63;1.08;;;9.40;96.70;;;;;;4951235;28;20042;-82
2022/05/04 02:27:39;;;;;;;5.28;0.90;;;9.30;96.70;;;;;;4952360;28;20031;-82
2022/05/04 02:30:10;;;;;;;6.70;1.20;;;9.30;96.80;;;;;;4945184;28;20050;-82
2022/05/04 02:32:38;;;;;;;9.00;1.00;;;9.30;96.80;;;;;;4950578;28;20046;-83
2022/05/04 02:38:09;;;;;;;9.45;1.35;;;9.30;96.90;;;;;;4950804;28;20031;-83
2022/05/04 02:40:38;;;;;;;7.50;1.40;;;9.30;96.80;;;;;;4919169;28;20042;-82
2022/05/04 02:43:07;;;;;;;5.88;0.80;;;9.30;96.80;;;;;;4951266;28;20027;-83
2022/05/04 02:45:34;;;;;;;6.40;1.17;;;9.30;96.90;;;;;;4934761;28;20050;-82
2022/05/04 02:48:13;;;;;;;4.88;0.98;;;9.30;96.90;;;;;;4952881;28;20031;-83
2022/05/04 02:50:41;;;;;;;5.75;1.00;;;9.30;96.90;;;;;;4948524;28;20502;-82
2022/05/04 02:53:23;;;;;;;6.85;1.13;;;9.20;96.90;;;;;;4953508;28;20494;-83
2022/05/04 02:55:52;;;;;;;8.63;1.42;;;9.20;96.90;;;;;;4934127;28;20038;-83
2022/05/04 02:58:21;;;;;;;6.75;1.30;;;9.20;96.90;;;;;;4951279;28;20054;-83
2022/05/04 03:00:51;;;;;;;5.38;0.93;;;9.20;97.00;;;;;;4951910;28;20034;-82
2022/05/04 03:03:24;;;;;;;10.02;1.75;;;9.20;97.00;;;;;;4925515;28;20038;-82
2022/05/04 03:05:50;;;;;;;6.47;1.33;;;9.10;97.10;;;;;;4948465;28;20034;-83
2022/05/04 03:08:17;;;;;;;4.70;0.90;;;9.10;97.10;;;;;;4949039;28;20046;-83
2022/05/04 03:13:38;;;;;;;8.73;1.70;;;9.00;97.10;;;;;;4951260;28;20037;-83
2022/05/04 03:16:15;;;;;;;8.25;1.23;;;9.00;97.10;;;;;;4948789;28;20039;-82
2022/05/04 03:18:43;;;;;;;8.80;1.80;;;8.90;97.20;;;;;;4946792;28;20039;-82
2022/05/04 03:21:11;;;;;;;6.03;1.60;;;8.90;97.20;;;;;;4961161;28;20039;-82
2022/05/04 03:23:39;;;;;;;7.68;1.40;;;8.90;97.30;;;;;;4950458;28;20053;-83
2022/05/04 03:26:13;;;;;;;11.35;1.63;;;8.80;97.30;;;;;;4918624;28;20041;-82
2022/05/04 03:28:49;;;;;;;8.65;1.08;;;8.80;97.30;;;;;;4962516;28;20047;-82
2022/05/04 03:31:20;;;;;;;8.38;1.13;;;8.80;97.40;;;;;;4929006;28;20054;-82
2022/05/04 03:33:53;;;;;;;8.30;1.25;;;8.70;97.40;;;;;;4968320;28;20051;-82
2022/05/04 03:36:23;;;;;;;7.65;1.30;;;8.70;97.40;;;;;;4942970;28;20035;-82
2022/05/04 03:38:50;;;;;;;9.18;1.13;;;8.70;97.40;;;;;;4938507;28;20054;-82
2022/05/04 03:41:29;;;;;;;8.05;1.00;;;8.70;97.40;;;;;;4932392;28;20046;-82
2022/05/04 03:43:57;;;;;;;11.02;1.70;;;8.70;97.40;;;;;;4947640;28;20066;-82
2022/05/04 03:46:28;;;;;;;8.25;1.25;;;8.70;97.50;;;;;;4951117;28;20127;-82
2022/05/04 03:49:05;;;;;;;6.07;1.08;;;8.70;97.50;;;;;;4949022;28;20037;-82
2022/05/04 03:51:31;;;;;;;6.65;1.48;;;8.60;97.40;;;;;;4920600;28;20502;-82
2022/05/04 03:53:59;;;;;;;8.43;1.40;;;8.70;97.50;;;;;;4953148;28;20054;-82
2022/05/04 03:56:29;;;;;;;8.32;1.30;;;8.60;97.50;;;;;;4948486;28;20039;-82
2022/05/04 03:59:02;;;;;;;9.90;1.73;;;8.60;97.50;;;;;;4930766;28;20066;-82
2022/05/04 04:01:36;;;;;;;8.00;1.60;;;8.60;97.50;;;;;;4931258;28;20039;-82
2022/05/04 04:04:12;;;;;;;12.20;1.52;;;8.60;97.50;;;;;;4932211;28;20047;-82
2022/05/04 04:06:50;;;;;;;5.95;1.00;;;8.60;97.40;;;;;;4939666;28;20031;-82
2022/05/04 04:09:50;;;;;;;7.47;1.42;;;8.60;97.40;;;;;;4956177;28;20034;-82
2022/05/04 04:12:22;;;;;;;6.20;1.35;;;8.70;97.40;;;;;;4954240;28;20039;-82
2022/05/04 04:14:50;;;;;;;6.38;1.33;;;8.60;97.40;;;;;;4937560;28;20049;-82
2022/05/04 04:17:18;;;;;;;8.40;1.17;;;8.60;97.40;;;;;;4938687;28;20046;-81
2022/05/04 04:21:50;;;;;;;7.15;1.38;;;8.60;97.40;;;;;;4939415;28;20043;-81
2022/05/04 04:22:34;;;;;;;10.05;1.63;;;8.60;97.40;;;;;;4938935;28;20045;-82
2022/05/04 04:25:00;;;;;;;10.55;1.38;;;8.50;97.30;;;;;;4956223;28;20039;-82
2022/05/04 04:27:27;;;;;;;7.05;1.40;;;8.50;97.40;;;;;;4923483;28;20367;-82
2022/05/04 04:29:53;;;;;;;7.25;1.33;;;8.50;97.40;;;;;;4926404;28;20035;-81
2022/05/04 04:32:19;;;;;;;5.38;1.00;;;8.40;97.40;;;;;;4924002;28;20403;-81
2022/05/04 04:34:46;;;;;;;7.10;1.23;;;8.40;97.50;;;;;;4937999;28;20050;-82
2022/05/04 04:37:12;;;;;;;8.27;1.10;;;8.40;97.50;;;;;;4919791;28;20039;-81
2022/05/04 04:39:39;;;;;;;9.63;1.42;;;8.30;97.60;;;;;;4921501;28;20039;-81
2022/05/04 04:42:06;;;;;;;14.00;2.20;;;8.30;97.60;;;;;;4923762;28;20399;-81
2022/05/04 04:44:33;;;;;;;8.75;1.70;;;8.30;97.80;;;;;;4950609;28;20050;-80
2022/05/04 04:46:59;;;;;;;13.55;1.83;;;8.20;97.80;;;;;;4949996;28;20034;-84
2022/05/04 04:49:26;;;;;;;8.85;1.63;;;8.20;97.80;;;;;;4935272;28;20035;-83
2022/05/04 04:51:52;;;;;;;7.88;1.23;;;8.20;97.80;;;;;;4948702;28;20027;-83
2022/05/04 04:54:19;;;;;;;10.95;1.63;;;8.20;97.90;;;;;;4934696;28;20027;-84
2022/05/04 04:56:45;;;;;;;8.00;2.00;;;8.20;97.90;;;;;;4906344;28;20050;-83
2022/05/04 04:59:12;;;;;;;11.15;3.70;;;8.20;98.00;;;;;;4926449;28;20069;-83
2022/05/04 05:01:38;;;;;;;13.85;4.65;;;8.30;98.00;;;;;;4930214;28;20035;-84
2022/05/04 05:04:05;;;;;;;7.70;1.95;;;8.40;98.10;;;;;;4923663;28;20041;-83
2022/05/04 05:06:31;;;;;;;10.00;2.58;;;8.50;98.00;;;;;;4937937;28;21379;-82
2022/05/04 05:08:58;;;;;;;10.43;2.10;;;8.50;98.30;;;;;;4918759;28;20039;-82
2022/05/04 05:11:26;;;;;;;6.88;1.90;;;8.60;97.90;;;;;;4935541;28;20050;-83
2022/05/04 05:16:41;;;;;;;10.52;3.85;;;8.70;97.90;;;;;;4936792;28;20438;-82
2022/05/04 05:19:08;;;;;;;9.05;2.17;;;8.80;97.80;;;;;;4931780;28;20034;-83
2022/05/04 05:21:41;;;;;;;9.00;1.30;;;8.80;97.70;;;;;;4932255;28;20058;-87
2022/05/04 05:28:05;;;;;;;8.93;1.60;;;9.00;97.50;;;;;;4911027;28;20034;-83
2022/05/04 05:30:41;;;;;;;13.55;3.15;;;9.10;97.40;;;;;;4964503;28;20861;-83
2022/05/04 05:33:29;;;;;;;6.35;1.75;;;9.10;97.30;;;;;;4967271;28;20034;-84
2022/05/04 05:35:57;;;;;;;7.00;1.52;;;9.20;97.30;;;;;;4951331;28;20487;-84
2022/05/04 05:38:33;;;;;;;7.68;1.63;;;9.30;97.10;;;;;;4947407;28;20038;-83
2022/05/04 05:41:08;;;;;;;10.18;1.83;;;9.40;97.20;;;;;;4934490;28;20368;-85
2022/05/04 05:43:36;;;;;;;9.23;1.85;;;9.50;96.90;;;;;;4931866;28;20055;-84
2022/05/04 05:46:05;;;;;;;6.30;1.45;;;9.70;96.80;;;;;;4914706;28;20034;-84
2022/05/04 05:48:33;;;;;;;5.20;1.05;;;9.70;96.70;;;;;;4927325;28;20045;-79
2022/05/04 05:51:04;;;;;;;4.15;1.10;;;9.80;96.60;;;;;;4940356;28;20043;-84
2022/05/04 05:53:31;;;;;;;7.90;1.70;;;9.90;96.50;;;;;;4951250;28;20035;-83
2022/05/04 06:01:08;;;;;;;8.70;1.73;;;10.20;96.10;;;;;;4968483;28;20154;-84
2022/05/04 06:03:54;;;;;;;10.73;1.83;;;10.40;95.80;;;;;;4937898;29;20047;-84
2022/05/04 06:09:59;;;;;;;6.45;1.15;;;10.70;95.30;;;;;;4899034;28;20432;-85
2022/05/04 06:12:50;;;;;;;6.18;1.15;;;10.90;95.00;;;;;;4929494;29;20034;-85
2022/05/04 06:15:39;;;;;;;8.02;1.52;;;11.00;94.70;;;;;;4932529;29;20039;-86
2022/05/04 06:18:33;;;;;;;9.15;1.35;;;11.10;94.30;;;;;;4940299;29;20035;-86
2022/05/04 06:24:33;;;;;;;9.38;1.90;;;11.40;94.00;;;;;;4935983;29;20388;-84
2022/05/04 06:27:22;;;;;;;6.43;1.10;;;11.50;93.40;;;;;;4931095;29;20035;-85
2022/05/04 06:36:00;;;;;;;8.38;1.63;;;12.20;92.40;;;;;;4926422;28;20782;-77
2022/05/04 06:38:32;;;;;;;7.20;1.30;;;12.30;91.90;;;;;;4921876;28;20495;-80
2022/05/04 06:41:05;;;;;;;5.50;1.27;;;12.40;91.80;;;;;;4923282;28;20047;-82
2022/05/04 06:43:32;;;;;;;5.60;1.45;;;12.60;91.60;;;;;;4925825;28;20039;-79
2022/05/04 06:45:59;;;;;;;6.18;1.05;;;12.90;91.50;;;;;;4908723;28;20035;-78
2022/05/04 06:48:25;;;;;;;8.73;1.60;;;13.20;90.60;;;;;;4896276;28;20035;-78
2022/05/04 06:50:52;;;;;;;8.82;2.53;;;13.40;90.40;;;;;;4909532;28;20030;-81
2022/05/04 06:53:18;;;;;;;9.02;3.50;;;13.60;90.20;;;;;;4865698;28;20039;-81
2022/05/04 06:55:44;;;;;;;7.30;2.60;;;13.80;89.90;;;;;;4910233;28;20044;-82
2022/05/04 06:58:11;;;;;;;5.30;1.40;;;13.70;89.40;;;;;;4906418;28;20043;-82
2022/05/04 07:00:37;;;;;;;7.25;1.58;;;13.60;89.60;;;;;;4933978;28;20050;-82
2022/05/04 07:03:04;;;;;;;6.28;1.15;;;13.60;88.90;;;;;;4930768;28;20494;-79
2022/05/04 07:05:30;;;;;;;9.25;1.27;;;13.60;88.50;;;;;;4953573;28;20039;-79
2022/05/04 07:07:57;;;;;;;8.23;1.58;;;13.70;88.00;;;;;;4908902;28;20468;-79
2022/05/04 07:10:32;;;;;;;8.20;1.40;;;13.70;87.60;;;;;;4908535;28;20493;-79
2022/05/04 07:12:58;;;;;;;7.45;1.30;;;13.70;86.90;;;;;;4908577;28;20414;-83
2022/05/04 07:15:24;;;;;;;6.70;1.05;;;13.70;86.90;;;;;;4944065;28;20479;-79
2022/05/04 07:17:51;;;;;;;11.95;1.58;;;13.80;86.50;;;;;;4939365;28;20039;-80
2022/05/04 07:20:40;;;;;;;13.18;1.40;;;13.90;86.40;;;;;;4920311;28;20034;-79
2022/05/04 07:23:20;;;;;;;6.20;1.10;;;14.00;85.50;;;;;;4922642;28;20031;-82
2022/05/04 07:25:47;;;;;;;5.75;0.90;;;14.00;85.20;;;;;;4941446;28;20475;-82
2022/05/04 07:28:15;;;;;;;4.03;0.80;;;14.10;85.30;;;;;;4946031;28;20032;-81
2022/05/04 07:30:45;;;;;;;3.92;1.05;;;14.20;85.00;;;;;;4922596;28;20387;-82
2022/05/04 07:33:27;;;;;;;5.55;1.25;;;14.30;85.10;;;;;;4937633;28;20043;-80
2022/05/04 07:36:02;;;;;;;8.05;1.15;;;14.40;85.10;;;;;;4927097;28;20035;-86
2022/05/04 07:38:35;;;;;;;9.10;1.15;;;14.40;84.50;;;;;;4926040;28;20479;-88
2022/05/04 07:44:04;;;;;;;9.88;3.65;;;14.60;83.80;;;;;;4943517;28;20046;-89
2022/05/04 07:46:49;;;;;;;;;;;;;;;;;;;;;
2022/05/04 07:49:19;;;;;;;5.50;1.85;;;14.80;83.50;;;;;;4926436;28;20031;-81
2022/05/04 07:51:49;;;;;;;3.63;1.10;;;14.90;82.60;;;;;;4942848;28;20114;-80
2022/05/04 07:54:17;;;;;;;9.70;1.58;;;14.90;81.90;;;;;;4929099;28;20538;-81
2022/05/04 07:56:52;;;;;;;6.10;1.77;;;14.90;81.60;;;;;;4932448;28;20031;-81
2022/05/04 07:59:20;;;;;;;5.63;1.20;;;14.90;81.00;;;;;;4915006;29;20827;-82
2022/05/04 08:04:35;;;;;;;6.60;1.50;;;15.00;81.00;;;;;;4946505;28;20039;-81
2022/05/04 08:07:02;;;;;;;8.80;2.22;;;15.10;80.60;;;;;;4927003;28;20416;-82
2022/05/04 08:09:34;;;;;;;10.65;1.80;;;15.30;80.80;;;;;;4939724;28;20503;-82
2022/05/04 08:12:06;;;;;;;8.45;1.58;;;15.40;80.40;;;;;;4927194;28;20051;-82
2022/05/04 08:15:02;;;;;;;3.65;1.20;;;15.50;79.60;;;;;;4924831;28;20043;-83
2022/05/04 08:17:28;;;;;;;5.00;1.48;;;15.50;79.40;;;;;;4942811;28;20028;-83
2022/05/04 08:20:08;;;;;;;6.32;1.40;;;15.60;79.30;;;;;;4939864;28;20051;-82
2022/05/04 08:23:04;;;;;;;10.40;2.20;;;15.80;79.50;;;;;;4912279;29;20036;-83
2022/05/04 08:25:34;;;;;;;5.97;1.20;;;16.10;79.10;;;;;;4908958;29;20044;-82
2022/05/04 08:28:06;;;;;;;5.65;0.95;;;16.30;78.10;;;;;;4928755;29;20028;-83
2022/05/04 08:30:40;;;;;;;6.22;1.10;;;16.50;78.00;;;;;;4896755;29;20055;-82
2022/05/04 08:33:07;;;;;;;5.13;1.15;;;16.60;77.10;;;;;;4910189;29;20035;-82
2022/05/04 08:35:50;;;;;;;6.20;1.50;;;16.50;76.80;;;;;;4913064;29;20039;-82
2022/05/04 08:38:18;;;;;;;5.53;1.23;;;16.50;76.00;;;;;;4908643;29;20039;-82
2022/05/04 08:40:54;;;;;;;4.85;1.05;;;16.40;76.20;;;;;;4925207;29;20044;-82
2022/05/04 08:43:24;;;;;;;8.95;2.33;;;16.50;76.50;;;;;;4928827;29;20036;-82
2022/05/04 08:45:54;;;;;;;5.38;1.30;;;16.60;75.70;;;;;;4930572;29;20030;-82
2022/05/04 08:48:24;;;;;;;5.45;1.00;;;16.70;75.60;;;;;;4914818;29;20035;-82
2022/05/04 08:50:51;;;;;;;6.03;1.70;;;16.70;75.10;;;;;;4912954;29;20051;-81
2022/05/04 08:53:23;;;;;;;6.38;1.33;;;16.80;75.00;;;;;;4914657;29;20059;-82
2022/05/04 08:55:50;;;;;;;4.13;1.15;;;16.90;74.00;;;;;;4915018;29;20055;-82
2022/05/04 08:58:17;;;;;;;3.65;0.90;;;17.00;73.70;;;;;;4910351;29;20054;-82
2022/05/04 09:00:54;;;;;;;4.90;1.25;;;17.00;73.40;;;;;;4927243;29;20051;-82
2022/05/04 09:03:28;;;;;;;6.80;1.27;;;17.10;72.90;;;;;;4897863;29;20058;-83
2022/05/04 09:05:59;;;;;;;6.28;1.30;;;17.20;72.30;;;;;;4911163;29;20072;-82
2022/05/04 09:08:32;;;;;;;5.63;1.30;;;17.30;71.80;;;;;;4912767;29;20058;-82
2022/05/04 09:14:56;;;;;;;6.10;1.13;;;17.30;70.10;;;;;;4928526;28;20050;-82
2022/05/04 09:17:23;;;;;;;2.65;0.93;;;17.30;70.70;;;;;;4941408;28;20030;-82
2022/05/04 09:22:43;;;;;;;4.88;1.00;;;17.40;69.80;;;;;;4935298;28;20044;-83
2022/05/04 09:25:18;;;;;;;4.28;1.42;;;17.40;70.30;;;;;;4912542;28;20046;-83
2022/05/04 09:27:52;;;;;;;3.55;1.13;;;17.60;70.30;;;;;;4906400;28;20027;-82
2022/05/04 09:30:25;;;;;;;6.15;2.13;;;17.80;70.10;;;;;;4936142;28;20047;-82
2022/05/04 09:33:32;;;;;;;4.40;1.13;;;18.00;69.50;;;;;;4940098;28;20499;-81
2022/05/04 09:36:00;;;;;;;18.23;8.00;;;18.20;69.00;;;;;;4924268;28;20024;-85
2022/05/04 09:47:16;;;;;;;6.00;1.00;;;18.70;67.40;;;;;;4923175;28;20384;-80
2022/05/04 09:49:44;;;;;;;6.40;1.13;;;18.90;66.20;;;;;;4947556;28;20027;-80
2022/05/04 09:52:14;;;;;;;4.38;1.40;;;18.90;65.90;;;;;;4918719;28;20036;-85
2022/05/04 09:54:41;;;;;;;2.80;0.75;;;18.90;65.60;;;;;;4913221;28;20024;-86
2022/05/04 09:57:22;;;;;;;4.68;1.52;;;18.90;65.80;;;;;;4922806;28;20039;-84
2022/05/04 10:00:00;;;;;;;2.15;0.73;;;18.80;65.30;;;;;;4938486;28;20066;-84
2022/05/04 10:02:37;;;;;;;4.05;0.75;;;18.80;65.70;;;;;;4953565;28;20046;-85
2022/05/04 10:05:13;;;;;;;3.72;0.80;;;19.00;65.60;;;;;;4954236;28;20035;-84
2022/05/04 10:07:52;;;;;;;4.38;1.13;;;19.10;64.90;;;;;;4955157;28;20050;-82
2022/05/04 10:10:25;;;;;;;3.28;1.02;;;19.10;64.50;;;;;;4926137;28;20035;-81
2022/05/04 10:12:52;;;;;;;4.30;1.63;;;19.10;64.40;;;;;;4948388;28;20065;-83
2022/05/04 10:15:25;;;;;;;7.15;1.67;;;19.20;64.70;;;;;;4926808;28;21190;-81
2022/05/04 10:18:05;;;;;;;6.22;1.25;;;19.20;64.00;;;;;;4936950;28;20035;-84
2022/05/04 10:20:44;;;;;;;3.33;1.08;;;19.40;63.10;;;;;;4941789;28;20030;-87
2022/05/04 10:23:22;;;;;;;5.50;1.38;;;19.50;63.10;;;;;;4943673;28;20479;-88
2022/05/04 10:25:53;;;;;;;3.78;1.40;;;19.80;63.10;;;;;;4936969;28;20383;-80
2022/05/04 10:28:19;;;;;;;4.00;1.52;;;20.10;62.70;;;;;;4924602;28;20054;-84
2022/05/04 10:30:53;;;;;;;3.95;1.30;;;20.20;61.40;;;;;;4931224;28;20030;-84
2022/05/04 10:33:23;;;;;;;5.38;1.40;;;20.30;61.30;;;;;;4943974;28;20399;-84
2022/05/04 10:35:50;;;;;;;6.40;1.75;;;20.50;61.30;;;;;;4933311;28;20090;-84
2022/05/04 10:38:29;;;;;;;4.45;1.05;;;20.70;60.00;;;;;;4924874;28;20065;-83
2022/05/04 10:40:57;;;;;;;6.43;1.80;;;20.80;60.10;;;;;;4924184;28;20352;-85
2022/05/04 10:43:47;;;;;;;7.20;3.00;;;20.80;59.50;;;;;;4933637;28;20031;-85
2022/05/04 10:46:18;;;;;;;4.43;2.13;;;20.90;58.40;;;;;;4941440;28;20095;-85
2022/05/04 10:49:07;;;;;;;5.00;1.50;;;21.10;58.50;;;;;;4937580;28;20378;-83
2022/05/04 10:51:36;;;;;;;4.72;1.08;;;21.30;57.40;;;;;;4912679;28;20061;-79
2022/05/04 10:54:12;;;;;;;3.08;1.02;;;21.30;57.40;;;;;;4941676;28;20042;-81
2022/05/04 10:56:51;;;;;;;3.42;1.10;;;21.50;57.20;;;;;;4950353;28;20042;-79
2022/05/04 10:59:30;;;;;;;4.07;1.10;;;21.80;56.80;;;;;;4945407;28;20070;-79
2022/05/04 11:02:11;;;;;;;2.92;0.90;;;22.00;55.30;;;;;;4959047;28;20050;-79
2022/05/04 11:04:40;;;;;;;3.47;1.00;;;22.20;54.30;;;;;;4964524;28;20027;-80
2022/05/04 11:07:07;;;;;;;7.82;1.08;;;22.50;54.20;;;;;;4944229;28;20046;-80
2022/05/04 11:09:43;;;;;;;5.68;1.10;;;22.80;53.80;;;;;;4922572;28;20038;-79
2022/05/04 11:12:12;;;;;;;6.35;1.13;;;23.30;53.80;;;;;;4948926;28;20356;-79
2022/05/04 11:14:39;;;;;;;4.05;0.90;;;23.80;53.00;;;;;;4944330;28;20046;-79
2022/05/04 11:17:10;;;;;;;6.53;1.00;;;24.10;52.10;;;;;;4927048;28;20047;-79
2022/05/04 11:19:45;;;;;;;6.82;1.48;;;24.50;52.00;;;;;;4922996;28;20034;-79
2022/05/04 11:22:39;;;;;;;4.88;1.33;;;24.90;50.20;;;;;;4961923;28;20049;-80
2022/05/04 11:25:09;;;;;;;8.85;1.35;;;25.00;49.60;;;;;;4965918;28;20038;-79
2022/05/04 11:27:43;;;;;;;3.95;1.63;;;25.10;48.40;;;;;;4963033;28;20062;-79
2022/05/04 11:30:13;;;;;;;5.78;1.42;;;25.00;46.60;;;;;;4945873;28;20595;-79
2022/05/04 11:32:43;;;;;;;3.00;1.10;;;25.00;47.60;;;;;;4963101;28;20117;-85
2022/05/04 11:35:15;;;;;;;5.05;1.10;;;25.20;47.70;;;;;;4918950;28;20038;-80
2022/05/04 11:37:54;;;;;;;3.85;1.17;;;25.50;46.30;;;;;;4943736;28;20483;-79
2022/05/04 11:40:52;;;;;;;4.18;0.90;;;25.50;45.60;;;;;;4938594;28;20031;-80
2022/05/04 11:43:40;;;;;;;6.65;1.20;;;25.60;46.00;;;;;;4946350;28;20525;-80
2022/05/04 11:46:19;;;;;;;4.70;1.10;;;25.90;45.00;;;;;;4963580;28;20030;-79
2022/05/04 11:48:51;;;;;;;5.10;1.40;;;26.20;45.00;;;;;;4931787;28;20062;-80
2022/05/04 11:51:20;;;;;;;3.28;1.25;;;26.40;44.80;;;;;;4954857;28;20031;-80
2022/05/04 11:53:54;;;;;;;6.10;1.73;;;26.80;44.50;;;;;;4932974;28;20069;-81
2022/05/04 11:56:54;;;;;;;4.95;1.38;;;27.10;43.90;;;;;;4950693;28;20039;-82
2022/05/04 11:59:30;;;;;;;4.95;1.23;;;27.30;43.70;;;;;;4941288;28;20059;-82
2022/05/04 12:02:04;;;;;;;4.38;1.40;;;27.70;43.40;;;;;;4926682;28;20065;-81
2022/05/04 12:04:34;;;;;;;4.38;1.10;;;27.90;43.10;;;;;;4916950;28;20062;-82
2022/05/04 12:07:05;;;;;;;6.50;1.85;;;28.20;42.80;;;;;;4910764;28;20038;-82
2022/05/04 12:09:34;;;;;;;4.10;1.52;;;28.40;41.80;;;;;;4910239;28;20038;-82
2022/05/04 12:12:01;;;;;;;7.82;1.88;;;28.70;41.90;;;;;;4922992;28;20150;-81
2022/05/04 12:14:52;;;;;;;4.03;1.75;;;28.80;40.40;;;;;;4924704;28;20024;-82
2022/05/04 12:17:37;;;;;;;4.78;1.40;;;28.90;40.70;;;;;;4928793;28;20479;-82
2022/05/04 12:20:07;;;;;;;4.97;1.85;;;28.90;39.90;;;;;;4926869;28;20035;-81
2022/05/04 12:22:44;;;;;;;4.50;1.50;;;28.80;40.40;;;;;;4947267;28;20023;-81
2022/05/04 12:25:38;;;;;;;5.57;1.85;;;29.00;40.40;;;;;;4927534;28;20050;-82
2022/05/04 12:28:18;;;;;;;5.55;2.10;;;29.10;39.60;;;;;;4926622;28;20153;-82
2022/05/04 12:33:39;;;;;;;7.03;2.55;;;29.00;39.10;;;;;;4947144;28;20359;-81
2022/05/04 12:36:14;;;;;;;4.30;1.75;;;29.30;38.70;;;;;;4930632;28;20084;-81
2022/05/04 12:38:52;;;;;;;5.20;1.80;;;29.60;39.10;;;;;;4928063;28;20388;-81
2022/05/04 12:41:48;;;;;;;8.70;2.10;;;30.10;38.80;;;;;;4928259;28;20027;-82
2022/05/04 12:44:24;;;;;;;6.97;2.90;;;30.40;38.00;;;;;;4932175;28;20059;-82
2022/05/04 12:46:59;;;;;;;5.95;3.22;;;30.70;37.50;;;;;;4919946;28;20039;-82
2022/05/04 12:49:27;;;;;;;9.30;6.10;;;30.70;37.30;;;;;;4914540;28;20055;-81
2022/05/04 12:52:08;;;;;;;5.95;3.03;;;31.00;37.10;;;;;;4929404;28;20031;-81
2022/05/04 12:54:51;;;;;;;7.28;1.52;;;31.20;36.90;;;;;;4902023;28;21245;-81
2022/05/04 12:57:24;;;;;;;6.63;3.55;;;31.20;36.00;;;;;;4926028;28;20329;-82
2022/05/04 12:59:58;;;;;;;5.72;2.20;;;31.30;35.90;;;;;;4945954;28;20059;-82
2022/05/04 13:02:25;;;;;;;4.25;1.80;;;31.60;36.00;;;;;;4929051;28;20051;-82
2022/05/04 13:04:52;;;;;;;6.00;2.03;;;31.80;35.30;;;;;;4925552;28;20059;-82
2022/05/04 13:07:32;;;;;;;;;;;;;;;;;;;;;
2022/05/04 13:10:12;;;;;;;5.15;2.50;;;31.80;34.50;;;;;;4944961;28;20897;-82
2022/05/04 13:13:20;;;;;;;7.28;1.85;;;32.10;34.70;;;;;;4947981;28;20042;-92
2022/05/04 13:15:51;;;;;;;4.22;1.30;;;32.30;33.40;;;;;;4941631;28;20054;-81
2022/05/04 13:18:34;;;;;;;6.82;1.33;;;32.50;33.80;;;;;;4945745;28;20039;-80
2022/05/04 13:21:01;;;;;;;8.23;5.65;;;32.80;32.60;;;;;;4944291;28;20050;-81
2022/05/04 13:23:27;;;;;;;3.78;1.08;;;32.70;33.00;;;;;;4918631;28;20043;-79
2022/05/04 13:25:54;;;;;;;3.58;0.90;;;32.40;32.20;;;;;;4914706;28;20023;-81
2022/05/04 13:28:20;;;;;;;5.32;1.92;;;32.30;33.10;;;;;;4944292;28;20357;-82
2022/05/04 13:30:47;;;;;;;15.48;11.95;;;32.40;33.00;;;;;;4927560;28;20040;-81
2022/05/04 13:33:16;;;;;;;4.78;1.83;;;32.40;33.00;;;;;;4940708;28;20019;-81
2022/05/04 13:35:43;;;;;;;5.80;1.27;;;32.50;32.80;;;;;;4914093;28;20046;-81
2022/05/04 13:38:12;;;;;;;4.95;1.20;;;32.80;32.60;;;;;;4928141;28;20039;-81
2022/05/04 13:40:39;;;;;;;5.97;1.92;;;32.90;31.90;;;;;;4914539;28;20050;-81
2022/05/04 13:43:06;;;;;;;5.53;2.25;;;32.70;32.50;;;;;;4899489;28;20038;-81
2022/05/04 13:45:33;;;;;;;5.53;2.33;;;32.60;32.50;;;;;;4926710;28;20054;-82
2022/05/04 13:47:59;;;;;;;6.13;2.80;;;32.80;32.80;;;;;;4941092;28;20051;-82
2022/05/04 13:53:14;;;;;;;4.32;1.20;;;32.80;31.90;;;;;;4932388;28;20038;-79
2022/05/04 13:55:52;;;;;;;8.05;1.10;;;33.00;32.10;;;;;;4942489;28;20391;-78
2022/05/04 13:58:20;;;;;;;4.75;2.00;;;33.50;32.00;;;;;;4937181;28;20047;-78
2022/05/04 14:00:49;;;;;;;10.32;6.60;;;33.80;31.40;;;;;;4950223;28;20066;-80
2022/05/04 14:03:16;;;;;;;4.65;2.70;;;33.90;31.40;;;;;;4944886;28;20219;-78
2022/05/04 14:05:44;;;;;;;3.45;1.38;;;34.00;30.90;;;;;;4943417;28;20031;-79
2022/05/04 14:08:13;;;;;;;4.97;2.35;;;34.10;30.80;;;;;;4926234;28;20387;-80
2022/05/04 14:10:43;;;;;;;4.60;1.00;;;34.50;30.00;;;;;;4942860;28;20032;-79
2022/05/04 14:13:11;;;;;;;2.63;0.73;;;34.80;30.10;;;;;;4926692;28;20044;-78
2022/05/04 14:15:37;;;;;;;3.05;0.80;;;34.90;29.60;;;;;;4942027;28;20502;-78
2022/05/04 14:18:05;;;;;;;5.82;1.70;;;34.70;29.20;;;;;;4940878;28;20050;-78